Time;durP1;ratioP1;P1;durP2;ratioP2;P2;SDS_P1;SDS_P2;PMS_P1;PMS_P2;Temp;Humidity;BMP_temperature;BMP_pressure;BME280_temperature;BME280_humidity;BME280_pressure;Samples;Min_cycle;Max_cycle;Signal;HPM_P1;HPM_P2
2023/11/19 00:17:47;;;;;;;19.80;14.30;;;;;;;0.35;91.37;99081.92;435358;1254;111418;-38
2023/11/19 00:37:55;;;;;;;30.50;18.50;;;;;;;0.36;91.23;99074.71;435289;1254;99280;-39
2023/11/19 00:58:03;;;;;;;37.30;20.50;;;;;;;0.24;91.14;99060.44;435269;1254;97996;-39
2023/11/19 01:08:06;;;;;;;28.80;17.80;;;;;;;0.12;91.33;99060.10;435388;1253;111867;-40
2023/11/19 01:18:10;;;;;;;24.00;16.20;;;;;;;0.13;91.19;99045.09;435279;1249;99251;-41
2023/11/19 01:28:14;;;;;;;20.70;14.10;;;;;;;0.26;91.26;99030.94;435252;1250;99193;-40
2023/11/19 01:38:17;;;;;;;32.60;19.60;;;;;;;0.29;91.30;99013.83;435359;1249;112049;-40
2023/11/19 01:48:20;;;;;;;32.00;19.90;;;;;;;0.28;91.36;98999.19;435328;1250;107495;-40
2023/11/19 01:58:25;;;;;;;25.20;16.00;;;;;;;0.25;91.33;98987.02;435515;1249;99209;-40
2023/11/19 02:08:29;;;;;;;25.70;17.20;;;;;;;0.13;91.20;98947.09;436358;1247;98002;-40
2023/11/19 02:18:33;;;;;;;18.80;14.10;;;;;;;-0.01;91.00;98923.73;435369;1250;109114;-40
2023/11/19 02:28:37;;;;;;;16.30;12.50;;;;;;;0.07;90.81;98906.90;435353;1254;99119;-39
2023/11/19 02:38:40;;;;;;;22.70;14.20;;;;;;;0.16;91.00;98895.30;435402;1249;108775;-38
2023/11/19 02:48:45;;;;;;;26.00;17.30;;;;;;;0.05;91.10;98849.86;435437;1249;99366;-40
2023/11/19 02:58:49;;;;;;;29.90;19.00;;;;;;;-0.15;90.95;98815.89;435495;1253;111211;-40
2023/11/19 03:08:53;;;;;;;28.50;18.00;;;;;;;-0.20;90.96;98813.98;435374;1253;99236;-39
2023/11/19 03:18:56;;;;;;;23.90;15.20;;;;;;;-0.08;91.10;98821.02;435333;1250;98828;-39
2023/11/19 03:29:01;;;;;;;26.80;17.10;;;;;;;0.02;91.38;98828.47;435423;1254;110832;-39
2023/11/19 03:39:04;;;;;;;29.20;16.80;;;;;;;-0.07;91.38;98809.51;435445;1250;108926;-39
2023/11/19 03:49:08;;;;;;;27.70;15.40;;;;;;;-0.27;91.01;98786.28;435525;1251;99231;-40
2023/11/19 04:09:15;;;;;;;26.80;17.20;;;;;;;-0.57;90.95;98735.34;435334;1250;108314;-39
2023/11/19 04:19:19;;;;;;;22.40;15.10;;;;;;;-0.52;91.10;98726.95;435461;1250;97957;-40
2023/11/19 04:29:22;;;;;;;26.90;17.00;;;;;;;-0.44;91.17;98701.48;435240;1253;108137;-40
2023/11/19 04:39:26;;;;;;;37.00;20.30;;;;;;;-0.42;91.26;98690.86;435344;1250;99209;-40
2023/11/19 04:59:35;;;;;;;31.70;21.20;;;;;;;-0.58;91.20;98664.11;435486;1254;109165;-40
2023/11/19 05:09:38;;;;;;;34.70;20.60;;;;;;;-0.52;91.23;98659.30;435267;1250;99234;-40
2023/11/19 05:19:42;;;;;;;34.20;20.00;;;;;;;-0.39;91.60;98645.17;435307;1249;107323;-40
2023/11/19 05:29:45;;;;;;;47.10;27.00;;;;;;;-0.37;91.75;98616.98;435416;1251;99322;-41
2023/11/19 05:39:49;;;;;;;48.70;28.20;;;;;;;-0.42;91.92;98604.45;435230;1255;111867;-40
2023/11/19 05:49:52;;;;;;;35.10;21.20;;;;;;;-0.41;91.65;98586.62;435179;1254;99297;-41
2023/11/19 05:59:56;;;;;;;33.90;18.50;;;;;;;-0.30;91.77;98592.53;435289;1250;99239;-40
2023/11/19 06:09:59;;;;;;;37.80;20.60;;;;;;;-0.19;91.97;98585.21;435377;1254;112626;-39
2023/11/19 06:20:05;;;;;;;43.30;23.00;;;;;;;-0.23;91.93;98584.52;435283;1250;108165;-40
2023/11/19 06:30:08;;;;;;;28.70;16.50;;;;;;;-0.24;91.93;98579.68;435372;1253;99228;-41
2023/11/19 06:50:17;;;;;;;46.80;24.00;;;;;;;-0.09;92.11;98550.44;435396;1254;99243;-40
2023/11/19 07:00:21;;;;;;;55.40;26.10;;;;;;;-0.10;92.35;98524.03;435475;1253;110415;-40
2023/11/19 07:10:24;;;;;;;36.60;21.10;;;;;;;-0.00;92.18;98499.65;435389;1250;108465;-40
2023/11/19 07:20:28;;;;;;;40.80;20.40;;;;;;;0.15;92.22;98484.86;435200;1253;99218;-39
2023/11/19 07:30:31;;;;;;;44.40;22.00;;;;;;;0.23;92.34;98479.70;435430;1253;108455;-41
2023/11/19 07:40:34;;;;;;;33.90;20.10;;;;;;;0.27;92.35;98464.06;435248;1250;99263;-41
2023/11/19 07:50:38;;;;;;;33.70;20.00;;;;;;;0.42;92.09;98441.95;435377;1249;112994;-40
2023/11/19 08:00:42;;;;;;;44.00;23.50;;;;;;;0.52;92.17;98404.73;435440;1250;107021;-40
2023/11/19 08:10:47;;;;;;;31.00;18.00;;;;;;;0.59;92.15;98411.04;435410;1253;98688;-40
2023/11/19 08:20:53;;;;;;;30.20;17.50;;;;;;;0.75;91.91;98408.09;435308;1254;111925;-39
2023/11/19 08:30:58;;;;;;;42.70;22.60;;;;;;;0.81;91.78;98385.38;435294;1254;107304;-45
2023/11/19 08:41:02;;;;;;;39.50;20.40;;;;;;;0.83;91.83;98378.12;435366;1254;98067;-39
2023/11/19 08:51:06;;;;;;;29.50;15.60;;;;;;;1.01;91.42;98349.30;435445;1254;99218;-40
2023/11/19 09:01:10;;;;;;;33.30;19.80;;;;;;;1.18;91.32;98336.64;435441;1253;107575;-41
2023/11/19 09:11:13;;;;;;;26.50;16.70;;;;;;;1.33;91.16;98314.07;435444;1250;98806;-40
2023/11/19 09:41:25;;;;;;;30.50;14.00;;;;;;;2.13;90.43;98270.88;435418;1253;111895;-40
2023/11/19 09:51:29;;;;;;;28.40;14.80;;;;;;;2.39;89.84;98256.73;435248;1250;108919;-40
2023/11/19 10:01:34;;;;;;;34.20;18.80;;;;;;;2.53;89.53;98230.92;435618;1250;97983;-42
2023/11/19 10:11:37;;;;;;;18.40;12.60;;;;;;;2.37;89.16;98203.29;435395;1250;98497;-40
2023/11/19 10:21:41;;;;;;;23.60;12.10;;;;;;;2.23;89.11;98175.11;435304;1254;107774;-39
2023/11/19 10:31:56;;;;;;;35.60;17.20;;;;;;;2.11;89.00;98150.85;435471;1253;98006;-39
2023/11/19 10:52:17;;;;;;;32.50;15.50;;;;;;;1.79;89.15;98110.89;435375;1250;107075;-42
2023/11/19 11:12:30;;;;;;;39.60;20.70;;;;;;;1.07;90.20;98085.23;435446;1255;109046;-39
2023/11/19 11:22:38;;;;;;;35.60;18.30;;;;;;;0.94;90.61;98072.21;435349;1253;99250;-40
2023/11/19 11:32:51;;;;;;;34.70;18.60;;;;;;;0.90;91.39;98043.00;435328;1256;111042;-40
2023/11/19 11:53:14;;;;;;;37.20;21.30;;;;;;;0.86;92.09;98014.45;435235;1253;99217;-41
2023/11/19 12:13:29;;;;;;;41.30;22.40;;;;;;;0.72;93.00;97979.55;435387;1250;99236;-39
2023/11/19 12:23:34;;;;;;;39.90;21.50;;;;;;;0.67;93.36;97961.91;435418;1263;112314;-40
2023/11/19 12:43:41;;;;;;;36.60;20.70;;;;;;;0.74;93.94;97921.61;435144;1254;436087;-40
2023/11/19 12:53:54;;;;;;;44.60;24.80;;;;;;;0.72;94.47;97917.85;435231;1250;107392;-41
2023/11/19 13:03:58;;;;;;;37.30;18.90;;;;;;;0.74;94.79;97895.23;435309;1256;98068;-40
2023/11/19 13:24:06;;;;;;;34.80;19.90;;;;;;;0.93;94.98;97866.46;435300;1250;108205;-41
2023/11/19 13:34:10;;;;;;;41.80;22.60;;;;;;;1.00;94.92;97851.22;435361;1250;99294;-40
2023/11/19 13:44:13;;;;;;;44.50;22.80;;;;;;;1.07;95.28;97856.05;435606;1255;108348;-40
2023/11/19 13:54:19;;;;;;;30.10;18.00;;;;;;;1.13;95.41;97846.02;435290;1255;98007;-39
2023/11/19 14:04:23;;;;;;;32.50;17.80;;;;;;;1.32;95.23;97844.05;435283;1256;111990;-39
2023/11/19 14:14:27;;;;;;;31.60;19.10;;;;;;;1.38;95.34;97841.27;435243;1255;107726;-40
2023/11/19 14:24:30;;;;;;;26.30;16.30;;;;;;;1.45;95.36;97831.76;435039;1253;99212;-40
2023/11/19 14:34:34;;;;;;;28.20;17.90;;;;;;;1.49;95.54;97818.39;435306;1254;108040;-39
2023/11/19 14:44:37;;;;;;;38.70;23.40;;;;;;;1.50;95.66;97801.13;435440;1256;98375;-40
2023/11/19 14:54:41;;;;;;;38.70;21.10;;;;;;;1.44;95.98;97794.33;435270;1255;111574;-40
2023/11/19 15:04:45;;;;;;;31.20;20.20;;;;;;;1.54;96.10;97788.36;435405;1250;107800;-40
2023/11/19 15:24:51;;;;;;;34.70;20.20;;;;;;;1.77;96.51;97783.05;435301;1250;108005;-40
2023/11/19 15:34:55;;;;;;;30.80;18.90;;;;;;;1.86;96.92;97775.02;435356;1253;99215;-40
2023/11/19 15:44:58;;;;;;;30.20;18.80;;;;;;;1.98;96.99;97775.55;435436;1254;109864;-41
2023/11/19 15:55:02;;;;;;;28.50;18.90;;;;;;;2.09;97.15;97768.89;435301;1255;106639;-40
2023/11/19 16:05:08;;;;;;;27.90;17.40;;;;;;;2.21;97.41;97765.63;435468;1255;99205;-40
2023/11/19 16:15:15;;;;;;;21.00;13.70;;;;;;;2.33;97.62;97758.27;435352;1253;107040;-40
2023/11/19 16:35:41;;;;;;;23.40;15.00;;;;;;;2.53;97.97;97761.83;435229;1255;111846;-40
2023/11/19 16:45:45;;;;;;;18.50;12.50;;;;;;;2.70;98.09;97752.12;435474;1251;108534;-40
2023/11/19 16:55:48;;;;;;;25.30;14.20;;;;;;;2.87;98.53;97747.79;435041;1256;99424;-40
2023/11/19 17:05:52;;;;;;;17.60;11.90;;;;;;;3.02;98.68;97745.74;435291;1256;107299;-40
2023/11/19 17:25:59;;;;;;;23.30;14.10;;;;;;;3.23;98.94;97744.92;435057;1256;110109;-40
2023/11/19 17:36:06;;;;;;;20.30;13.50;;;;;;;3.25;98.92;97737.56;435263;1252;107711;-41
2023/11/19 17:46:09;;;;;;;19.30;10.10;;;;;;;3.26;99.09;97731.20;435086;1262;98662;-39
2023/11/19 17:56:14;;;;;;;16.40;11.40;;;;;;;3.30;99.24;97723.79;435166;1264;108354;-40
2023/11/19 18:06:18;;;;;;;15.40;9.50;;;;;;;3.34;99.38;97733.48;435096;1255;99068;-40
2023/11/19 18:16:23;;;;;;;16.30;10.20;;;;;;;3.40;99.34;97731.34;435210;1255;110563;-40
2023/11/19 18:36:48;;;;;;;14.40;8.40;;;;;;;3.56;99.69;97719.42;435217;1257;99250;-40
2023/11/19 18:46:51;;;;;;;11.50;7.40;;;;;;;3.64;99.95;97725.90;435010;1256;110285;-39
2023/11/19 19:17:00;;;;;;;11.80;8.20;;;;;;;3.85;100.00;97734.23;435327;1257;107843;-39
2023/11/19 19:27:05;;;;;;;20.30;11.10;;;;;;;3.86;100.00;97743.55;435267;1251;99352;-40
2023/11/19 19:37:09;;;;;;;12.90;8.70;;;;;;;3.86;100.00;97752.23;435179;1264;107526;-40
2023/11/19 19:47:13;;;;;;;12.00;8.80;;;;;;;3.95;100.00;97745.91;435083;1257;99349;-41
2023/11/19 19:57:17;;;;;;;15.80;9.40;;;;;;;4.05;100.00;97744.95;435401;1256;112099;-39
2023/11/19 20:07:20;;;;;;;15.40;9.70;;;;;;;4.12;100.00;97743.73;435115;1258;107566;-40
2023/11/19 20:17:24;;;;;;;13.20;9.00;;;;;;;4.19;100.00;97751.22;435099;1251;99234;-39
2023/11/19 20:27:28;;;;;;;13.90;9.80;;;;;;;4.25;100.00;97753.19;435044;1257;108109;-40
2023/11/19 20:47:34;;;;;;;17.30;10.80;;;;;;;4.38;100.00;97764.58;435135;1251;111911;-40
2023/11/19 21:07:42;;;;;;;22.40;15.30;;;;;;;4.52;100.00;97763.59;435161;1251;99239;-40
2023/11/19 21:17:45;;;;;;;20.50;13.00;;;;;;;4.53;100.00;97765.52;435032;1251;108248;-39
2023/11/19 21:27:49;;;;;;;25.90;15.50;;;;;;;4.56;100.00;97767.95;435242;1251;99201;-40
2023/11/19 21:37:53;;;;;;;23.60;15.20;;;;;;;4.57;100.00;97768.27;435177;1255;110869;-39
2023/11/19 21:47:55;;;;;;;18.90;12.60;;;;;;;4.59;100.00;97759.95;435045;1251;108118;-40
2023/11/19 21:57:58;;;;;;;17.30;13.70;;;;;;;4.60;100.00;97765.34;435133;1255;99227;-39
2023/11/19 22:08:01;;;;;;;15.90;10.40;;;;;;;4.68;100.00;97761.77;435166;1257;107858;-39
2023/11/19 22:48:32;;;;;;;17.70;12.50;;;;;;;4.83;100.00;97751.52;435223;1252;99227;-40
2023/11/19 23:08:38;;;;;;;19.10;11.70;;;;;;;4.85;100.00;97743.92;435192;1251;98946;-40
2023/11/19 23:18:41;;;;;;;15.80;10.00;;;;;;;4.82;100.00;97742.30;435060;1256;111235;-41
2023/11/19 23:28:44;;;;;;;18.50;11.10;;;;;;;4.80;100.00;97755.81;434934;1251;109909;-39
2023/11/19 23:38:52;;;;;;;15.30;8.60;;;;;;;4.88;100.00;97766.01;435214;1257;99237;-43
2023/11/19 23:48:55;;;;;;;16.90;9.50;;;;;;;4.98;100.00;97768.43;435324;1255;108257;-40
